createdAt,value
2023-03-22T00:04:16.544Z,95.29
2023-03-22T00:09:18.255Z,94.95
2023-03-22T00:14:19.840Z,95.11
2023-03-22T00:19:21.392Z,96.01
2023-03-22T00:24:22.979Z,96.58
2023-03-22T00:29:24.571Z,96.37
2023-03-22T00:34:31.704Z,96.14
2023-03-22T00:39:33.290Z,96.84
2023-03-22T00:44:34.861Z,97.22
2023-03-22T00:49:37.480Z,97.35
2023-03-22T00:54:39.184Z,97.32
2023-03-22T00:59:42.819Z,97.89
2023-03-22T01:04:47.992Z,97.93
2023-03-22T01:09:50.680Z,97.81
2023-03-22T01:14:52.250Z,98.06
2023-03-22T01:19:53.870Z,98.62
2023-03-22T01:24:55.560Z,99.51
2023-03-22T01:29:57.346Z,99.54
2023-03-22T01:34:58.981Z,99.65
2023-03-22T01:40:04.663Z,99.46
2023-03-22T01:45:13.284Z,99.80
2023-03-22T01:50:17.263Z,99.92
2023-03-22T01:55:22.846Z,100.00
2023-03-22T02:00:31.946Z,100.00
2023-03-22T02:05:54.576Z,100.00
2023-03-22T02:11:00.682Z,100.00
2023-03-22T02:16:35.637Z,100.00
2023-03-22T02:22:31.257Z,100.00
2023-03-22T02:27:49.684Z,100.00
2023-03-22T02:33:13.418Z,100.00
2023-03-22T02:38:28.932Z,100.00
2023-03-22T02:44:04.137Z,100.00
2023-03-22T02:49:11.885Z,100.00
2023-03-22T02:54:20.736Z,100.00
2023-03-22T02:59:24.882Z,100.00
2023-03-22T03:04:32.769Z,100.00
2023-03-22T03:09:35.852Z,100.00
2023-03-22T03:14:37.402Z,100.00
2023-03-22T03:20:09.356Z,100.00
2023-03-22T03:25:38.435Z,100.00
2023-03-22T03:30:52.838Z,100.00
2023-03-22T03:36:05.166Z,100.00
2023-03-22T03:41:18.033Z,100.00
2023-03-22T03:46:20.429Z,100.00
2023-03-22T03:51:21.961Z,100.00
2023-03-22T03:56:23.723Z,100.00
2023-03-22T04:01:28.463Z,100.00
2023-03-22T04:06:40.441Z,100.00
2023-03-22T04:11:46.835Z,100.00
2023-03-22T04:16:50.118Z,100.00
2023-03-22T04:21:57.493Z,100.00
2023-03-22T04:26:59.126Z,100.00
2023-03-22T04:32:05.574Z,100.00
2023-03-22T04:37:15.517Z,100.00
2023-03-22T04:42:30.303Z,100.00
2023-03-22T04:47:47.454Z,100.00
2023-03-22T04:52:50.028Z,100.00
2023-03-22T04:57:54.656Z,100.00
2023-03-22T05:02:58.201Z,100.00
2023-03-22T05:08:15.867Z,100.00
2023-03-22T05:13:22.946Z,100.00
2023-03-22T05:18:26.279Z,100.00
2023-03-22T05:23:30.323Z,100.00
2023-03-22T05:28:32.474Z,100.00
2023-03-22T05:33:55.219Z,100.00
2023-03-22T05:38:59.716Z,100.00
2023-03-22T05:44:01.503Z,100.00
2023-03-22T05:49:03.799Z,100.00
2023-03-22T05:54:07.586Z,100.00
2023-03-22T05:59:14.689Z,100.00
2023-03-22T06:04:16.289Z,100.00
2023-03-22T06:09:32.932Z,100.00
2023-03-22T06:14:36.557Z,100.00
2023-03-22T06:19:46.273Z,100.00
2023-03-22T06:24:49.837Z,100.00
2023-03-22T06:29:57.980Z,100.00
2023-03-22T06:35:00.733Z,100.00
2023-03-22T06:40:03.908Z,100.00
2023-03-22T06:45:06.328Z,100.00
2023-03-22T06:50:10.951Z,100.00
2023-03-22T06:55:40.002Z,100.00
2023-03-22T07:00:57.177Z,100.00
2023-03-22T07:06:04.229Z,100.00
2023-03-22T07:11:07.800Z,100.00
2023-03-22T07:16:10.370Z,100.00
2023-03-22T07:21:26.056Z,100.00
2023-03-22T07:26:32.411Z,100.00
2023-03-22T07:31:36.598Z,98.22
2023-03-22T07:36:57.006Z,96.83
2023-03-22T07:41:58.830Z,95.47
2023-03-22T07:47:00.399Z,94.23
2023-03-22T07:52:14.881Z,92.36
2023-03-22T07:57:16.816Z,90.17
2023-03-22T08:02:23.776Z,88.98
2023-03-22T08:07:30.284Z,87.00
2023-03-22T08:12:33.186Z,85.35
2023-03-22T08:17:44.695Z,82.18
2023-03-22T08:22:52.296Z,81.09
2023-03-22T08:27:53.859Z,79.08
2023-03-22T08:32:56.966Z,76.32
2023-03-22T08:37:58.710Z,75.52
2023-03-22T08:43:07.803Z,75.73
2023-03-22T08:48:10.497Z,73.55
2023-03-22T08:53:31.440Z,71.03
2023-03-22T08:58:53.743Z,69.34
2023-03-22T09:04:11.330Z,69.78
2023-03-22T09:09:13.104Z,70.28
2023-03-22T09:14:16.175Z,69.04
2023-03-22T09:19:18.024Z,68.76
2023-03-22T09:24:20.637Z,68.86
2023-03-22T09:29:27.434Z,67.63
2023-03-22T09:34:29.197Z,67.69
2023-03-22T09:39:31.855Z,67.09
2023-03-22T09:44:43.652Z,66.65
2023-03-22T09:50:01.433Z,65.62
2023-03-22T09:55:03.442Z,64.42
2023-03-22T10:00:18.783Z,61.91
2023-03-22T10:05:35.715Z,61.56
2023-03-22T10:10:41.840Z,62.05
2023-03-22T10:15:53.890Z,61.82
2023-03-22T10:21:05.160Z,61.23
2023-03-22T10:26:09.027Z,60.48
2023-03-22T10:31:17.824Z,58.09
2023-03-22T10:36:23.513Z,58.23
2023-03-22T10:41:27.378Z,56.00
2023-03-22T10:46:35.891Z,57.04
2023-03-22T10:51:41.103Z,56.83
2023-03-22T10:57:02.770Z,56.81
2023-03-22T11:02:04.412Z,57.08
2023-03-22T11:07:06.146Z,57.32
2023-03-22T11:12:13.121Z,57.19
2023-03-22T11:17:22.255Z,55.68
2023-03-22T11:22:39.057Z,55.13
2023-03-22T11:28:04.484Z,55.80
2023-03-22T11:33:17.075Z,54.96
2023-03-22T11:38:39.764Z,54.64
2023-03-22T11:43:48.404Z,54.83
2023-03-22T11:48:52.497Z,52.97
2023-03-22T11:54:01.008Z,52.95
2023-03-22T11:59:09.104Z,52.63
2023-03-22T12:04:15.978Z,51.62
2023-03-22T12:09:35.643Z,52.80
2023-03-22T12:14:52.431Z,51.75
2023-03-22T12:20:07.363Z,51.66
2023-03-22T12:25:14.948Z,51.81
2023-03-22T12:30:25.380Z,52.34
2023-03-22T12:35:31.627Z,51.26
2023-03-22T12:40:38.413Z,51.36
2023-03-22T12:45:45.984Z,50.98
2023-03-22T12:50:56.923Z,51.49
2023-03-22T12:55:59.029Z,51.68
2023-03-22T13:01:23.554Z,51.24
2023-03-22T13:06:33.244Z,49.96
2023-03-22T13:11:34.928Z,49.51
2023-03-22T13:16:59.030Z,49.35
2023-03-22T13:22:41.659Z,48.87
2023-03-22T13:27:53.046Z,47.80
2023-03-22T13:33:09.741Z,47.71
2023-03-22T13:38:26.807Z,47.33
2023-03-22T13:43:33.300Z,47.37
2023-03-22T13:48:47.289Z,47.10
2023-03-22T13:54:30.846Z,47.30
2023-03-22T14:00:11.332Z,47.00
2023-03-22T14:05:22.638Z,47.35
2023-03-22T14:10:49.140Z,47.57
2023-03-22T14:15:54.335Z,47.57
2023-03-22T14:21:00.468Z,47.75
